createdAt,value
2019-01-19T00:00:51.788Z,-3.40
2019-01-19T00:03:49.213Z,-3.40
2019-01-19T00:06:42.969Z,-3.50
2019-01-19T00:09:38.632Z,-3.50
2019-01-19T00:12:39.483Z,-3.60
2019-01-19T00:15:34.920Z,-3.60
2019-01-19T00:18:37.032Z,-3.60
2019-01-19T00:21:32.169Z,-3.60
2019-01-19T00:24:42.812Z,-3.60
2019-01-19T00:27:51.440Z,-3.60
2019-01-19T00:30:28.277Z,-3.50
2019-01-19T00:33:51.019Z,-3.60
2019-01-19T00:36:26.090Z,-3.60
2019-01-19T00:39:34.340Z,-3.60
2019-01-19T00:42:29.879Z,-3.60
2019-01-19T00:45:51.505Z,-3.60
2019-01-19T00:48:52.796Z,-3.70
2019-01-19T00:51:41.485Z,-3.70
2019-01-19T00:54:14.905Z,-3.70
2019-01-19T00:57:04.526Z,-3.70
2019-01-19T00:59:38.411Z,-3.60
2019-01-19T01:02:47.276Z,-3.60
2019-01-19T01:05:34.126Z,-3.70
2019-01-19T01:08:23.583Z,-3.70
2019-01-19T01:11:08.435Z,-3.70
2019-01-19T01:14:17.618Z,-3.60
2019-01-19T01:17:39.047Z,-3.70
2019-01-19T01:20:41.870Z,-3.60
2019-01-19T01:23:35.047Z,-3.70
2019-01-19T01:26:27.349Z,-3.70
2019-01-19T01:29:17.499Z,-3.70
2019-01-19T01:31:57.486Z,-3.70
2019-01-19T01:35:16.007Z,-3.70
2019-01-19T01:37:50.886Z,-3.70
2019-01-19T01:40:50.388Z,-3.70
2019-01-19T01:44:06.557Z,-3.80
2019-01-19T01:47:11.357Z,-3.80
2019-01-19T01:50:11.829Z,-3.80
2019-01-19T01:53:03.231Z,-3.80
2019-01-19T01:55:47.491Z,-3.80
2019-01-19T01:58:39.440Z,-3.80
2019-01-19T02:01:57.187Z,-3.80
2019-01-19T02:05:06.271Z,-3.70
2019-01-19T02:07:57.507Z,-3.70
2019-01-19T02:10:55.072Z,-3.70
2019-01-19T02:13:52.376Z,-3.70
2019-01-19T02:16:49.789Z,-3.70
2019-01-19T02:19:51.699Z,-3.70
2019-01-19T02:22:49.616Z,-3.70
2019-01-19T02:25:28.891Z,-3.70
2019-01-19T02:28:44.265Z,-3.70
2019-01-19T02:31:43.550Z,-3.70
2019-01-19T02:34:40.727Z,-3.70
2019-01-19T02:37:39.521Z,-3.70
2019-01-19T02:40:39.465Z,-3.70
2019-01-19T02:43:18.320Z,-3.70
2019-01-19T02:46:24.468Z,-3.80
2019-01-19T02:49:16.747Z,-3.80
2019-01-19T02:52:19.936Z,-3.80
2019-01-19T02:55:41.816Z,-3.80
2019-01-19T02:58:24.967Z,-3.90
2019-01-19T03:01:31.003Z,-3.90
2019-01-19T03:04:36.109Z,-3.90
2019-01-19T03:07:35.236Z,-3.90
2019-01-19T03:10:53.786Z,-3.90
2019-01-19T03:14:03.707Z,-3.90
2019-01-19T03:17:28.548Z,-4.00
2019-01-19T03:20:50.290Z,-4.00
2019-01-19T03:23:47.395Z,-4.10
2019-01-19T03:26:40.232Z,-4.10
2019-01-19T03:29:38.589Z,-4.10
2019-01-19T03:32:27.442Z,-4.10
2019-01-19T03:35:23.236Z,-4.10
2019-01-19T03:38:20.326Z,-4.00
2019-01-19T03:41:46.049Z,-4.10
2019-01-19T03:45:11.100Z,-4.00
2019-01-19T03:48:03.271Z,-4.00
2019-01-19T03:50:38.628Z,-4.00
2019-01-19T03:53:36.340Z,-4.00
2019-01-19T03:56:30.761Z,-4.00
2019-01-19T03:59:34.215Z,-4.00
2019-01-19T04:03:17.987Z,-4.00
2019-01-19T04:06:13.749Z,-4.00
2019-01-19T04:09:30.091Z,-4.00
2019-01-19T04:12:37.883Z,-4.00
2019-01-19T04:15:57.355Z,-4.00
2019-01-19T04:19:21.992Z,-3.90
2019-01-19T04:22:16.084Z,-3.90
2019-01-19T04:25:16.443Z,-3.80
2019-01-19T04:27:45.500Z,-3.70
2019-01-19T04:30:14.483Z,-3.80
2019-01-19T04:32:43.235Z,-3.80
2019-01-19T04:35:12.412Z,-3.90
2019-01-19T04:37:41.347Z,-4.00
2019-01-19T04:40:12.264Z,-4.00
2019-01-19T04:42:42.866Z,-4.10
2019-01-19T04:45:11.783Z,-4.10
2019-01-19T04:47:41.726Z,-4.10
2019-01-19T04:50:11.648Z,-4.10
2019-01-19T04:52:40.403Z,-4.10
2019-01-19T04:55:09.764Z,-4.10
2019-01-19T04:57:38.584Z,-4.10
2019-01-19T05:00:12.295Z,-4.10
2019-01-19T05:02:41.343Z,-4.20
2019-01-19T05:05:10.596Z,-4.20
2019-01-19T05:07:39.864Z,-4.20
2019-01-19T05:10:09.238Z,-4.10
2019-01-19T05:12:38.129Z,-4.20
2019-01-19T05:15:10.687Z,-4.20
2019-01-19T05:17:39.980Z,-4.20
2019-01-19T05:20:09.804Z,-4.20
2019-01-19T05:22:39.103Z,-4.20
2019-01-19T05:25:08.935Z,-4.20
2019-01-19T05:27:37.834Z,-4.20
2019-01-19T05:30:10.795Z,-4.20
2019-01-19T05:32:40.757Z,-4.20
2019-01-19T05:35:09.819Z,-4.20
2019-01-19T05:37:38.818Z,-4.30
2019-01-19T05:40:09.265Z,-4.20
2019-01-19T05:42:38.028Z,-4.20
2019-01-19T05:45:08.217Z,-4.30
2019-01-19T05:47:37.005Z,-4.30
2019-01-19T05:50:11.988Z,-4.30
2019-01-19T05:52:40.852Z,-4.30
2019-01-19T05:55:09.897Z,-4.30
2019-01-19T05:57:39.004Z,-4.30
2019-01-19T06:00:11.969Z,-4.30
2019-01-19T06:02:41.036Z,-4.40
2019-01-19T06:05:11.471Z,-4.40
2019-01-19T06:07:41.605Z,-4.40
2019-01-19T06:10:13.625Z,-4.40
2019-01-19T06:12:42.529Z,-4.40
2019-01-19T06:15:13.068Z,-4.40
2019-01-19T06:17:42.531Z,-4.40
2019-01-19T06:20:13.845Z,-4.40
2019-01-19T06:22:43.069Z,-4.40
2019-01-19T06:25:13.152Z,-4.40
2019-01-19T06:27:42.093Z,-4.30
2019-01-19T06:30:17.059Z,-4.30
2019-01-19T06:32:46.088Z,-4.30
2019-01-19T06:35:15.329Z,-4.40
2019-01-19T06:37:44.220Z,-4.40
2019-01-19T06:40:13.780Z,-4.40
2019-01-19T06:42:42.754Z,-4.40
2019-01-19T06:45:14.343Z,-4.40
2019-01-19T06:47:43.328Z,-4.40
2019-01-19T06:50:14.247Z,-4.40
2019-01-19T06:52:43.100Z,-4.40
2019-01-19T06:55:13.469Z,-4.40
2019-01-19T06:57:42.324Z,-4.40
2019-01-19T07:00:14.116Z,-4.50
2019-01-19T07:02:43.210Z,-4.50
2019-01-19T07:05:12.436Z,-4.50
2019-01-19T07:07:42.431Z,-4.50
2019-01-19T07:10:14.751Z,-4.50
2019-01-19T07:12:43.616Z,-4.50
2019-01-19T07:15:13.390Z,-4.50
2019-01-19T07:17:42.440Z,-4.50
2019-01-19T07:20:14.202Z,-4.50
2019-01-19T07:22:43.421Z,-4.50
2019-01-19T07:25:13.118Z,-4.50
2019-01-19T07:27:42.002Z,-4.40
2019-01-19T07:30:13.974Z,-4.40
2019-01-19T07:32:45.039Z,-4.40
2019-01-19T07:35:15.838Z,-4.40
2019-01-19T07:37:48.546Z,-4.40
2019-01-19T07:40:18.998Z,-4.40
2019-01-19T07:42:52.552Z,-4.30
2019-01-19T07:45:23.330Z,-4.30
2019-01-19T07:47:54.587Z,-4.30
2019-01-19T07:50:24.498Z,-4.20
2019-01-19T07:52:55.771Z,-4.20
2019-01-19T07:55:26.895Z,-4.10
2019-01-19T07:57:57.170Z,-4.10
2019-01-19T08:00:29.985Z,-4.10
2019-01-19T08:03:01.651Z,-4.00
2019-01-19T08:05:32.772Z,-4.00
2019-01-19T08:08:04.386Z,-3.90
2019-01-19T08:10:35.195Z,-3.80
2019-01-19T08:13:06.258Z,-3.70
2019-01-19T08:15:37.603Z,-3.50
2019-01-19T08:18:08.835Z,-3.50
2019-01-19T08:20:39.346Z,-3.30
2019-01-19T08:23:10.025Z,-3.30
2019-01-19T08:25:40.630Z,-3.20
2019-01-19T08:28:11.914Z,-3.10
2019-01-19T08:30:41.807Z,-2.90
2019-01-19T08:33:12.957Z,-2.60
2019-01-19T08:35:44.107Z,-2.50
2019-01-19T08:38:15.631Z,-2.30
2019-01-19T08:40:46.376Z,-1.90
2019-01-19T08:43:29.422Z,-1.00
2019-01-19T08:45:59.736Z,0.10
2019-01-19T08:48:30.922Z,0.60
2019-01-19T08:51:00.826Z,0.90
2019-01-19T08:53:32.693Z,0.80
2019-01-19T08:56:03.591Z,0.60
2019-01-19T08:58:35.113Z,0.70
2019-01-19T09:01:05.674Z,0.60
2019-01-19T09:03:35.305Z,0.60
2019-01-19T09:06:05.538Z,0.70
2019-01-19T09:08:36.232Z,1.00
2019-01-19T09:11:06.687Z,0.50
2019-01-19T09:13:38.234Z,0.10
2019-01-19T09:16:20.228Z,0.00
2019-01-19T09:18:51.046Z,0.00
2019-01-19T09:21:21.385Z,0.10
2019-01-19T09:23:59.484Z,0.30
2019-01-19T09:26:30.232Z,0.60
2019-01-19T09:28:59.433Z,0.90
2019-01-19T09:31:29.060Z,1.10
2019-01-19T09:33:59.822Z,1.20
2019-01-19T09:36:30.040Z,1.70
2019-01-19T09:38:59.877Z,1.90
2019-01-19T09:41:30.517Z,2.30
2019-01-19T09:44:00.394Z,1.90
2019-01-19T09:46:32.623Z,2.30
2019-01-19T09:49:03.082Z,2.20
2019-01-19T09:51:32.055Z,1.90
2019-01-19T09:54:01.277Z,2.30
2019-01-19T09:56:31.886Z,2.50
2019-01-19T09:59:01.763Z,2.80
2019-01-19T10:01:32.098Z,2.70
2019-01-19T10:04:01.409Z,3.20
2019-01-19T10:06:30.600Z,3.30
2019-01-19T10:08:59.921Z,4.10
2019-01-19T10:11:29.037Z,3.90
2019-01-19T10:13:59.178Z,3.40
2019-01-19T10:16:28.214Z,3.30
2019-01-19T10:18:57.832Z,3.50
2019-01-19T10:21:27.588Z,4.00
2019-01-19T10:23:57.225Z,4.10
2019-01-19T10:26:26.756Z,3.70
2019-01-19T10:28:56.208Z,4.00
2019-01-19T10:31:27.977Z,4.30
2019-01-19T10:33:58.075Z,4.50
2019-01-19T10:36:27.297Z,4.90
2019-01-19T10:38:56.184Z,5.20
2019-01-19T10:41:24.992Z,5.20
2019-01-19T10:43:53.745Z,4.60
2019-01-19T10:46:23.576Z,4.30
2019-01-19T10:48:53.612Z,4.60
2019-01-19T10:51:23.144Z,5.30
2019-01-19T10:53:52.603Z,4.90
2019-01-19T10:56:22.416Z,5.40
2019-01-19T10:58:51.256Z,5.30
2019-01-19T11:01:21.112Z,5.30
2019-01-19T11:03:50.245Z,5.10
2019-01-19T11:06:19.342Z,5.00
2019-01-19T11:08:48.187Z,5.20
2019-01-19T11:11:17.507Z,5.20
2019-01-19T11:13:46.615Z,5.00
2019-01-19T11:16:16.082Z,5.60
2019-01-19T11:18:44.928Z,5.70
2019-01-19T11:21:13.848Z,5.90
2019-01-19T11:23:42.705Z,5.30
2019-01-19T11:26:11.571Z,4.90
2019-01-19T11:28:40.483Z,5.30
2019-01-19T11:31:09.360Z,4.80
2019-01-19T11:33:38.160Z,5.20
2019-01-19T11:36:26.282Z,5.50
2019-01-19T11:39:07.315Z,6.10
2019-01-19T11:41:52.814Z,6.70
2019-01-19T11:44:31.706Z,6.40
2019-01-19T11:47:12.879Z,6.60
2019-01-19T11:49:48.903Z,6.60
2019-01-19T11:52:18.239Z,7.70
2019-01-19T11:54:47.372Z,7.70
2019-01-19T11:57:16.221Z,8.50
2019-01-19T11:59:45.039Z,7.10
2019-01-19T12:02:13.835Z,7.10
2019-01-19T12:04:42.640Z,8.00
2019-01-19T12:07:11.431Z,7.80
2019-01-19T12:09:41.246Z,7.30
2019-01-19T12:12:10.393Z,7.20
2019-01-19T12:14:39.489Z,7.50
2019-01-19T12:17:08.336Z,7.80
2019-01-19T12:19:37.579Z,7.70
2019-01-19T12:22:06.769Z,7.30
2019-01-19T12:24:36.433Z,7.70
2019-01-19T12:27:05.746Z,8.00
2019-01-19T12:29:34.543Z,7.80
2019-01-19T12:32:03.874Z,7.30
2019-01-19T12:34:32.797Z,7.00
2019-01-19T12:37:01.771Z,7.20
2019-01-19T12:39:30.536Z,7.20
2019-01-19T12:41:59.387Z,6.90
2019-01-19T12:44:29.234Z,6.90
2019-01-19T12:46:58.072Z,7.40
2019-01-19T12:49:27.005Z,6.60
2019-01-19T12:51:55.968Z,6.60
2019-01-19T12:54:24.804Z,6.30
2019-01-19T12:56:53.753Z,7.00
2019-01-19T12:59:22.553Z,7.30
2019-01-19T13:01:51.400Z,7.80
2019-01-19T13:04:20.237Z,7.50
2019-01-19T13:07:13.579Z,7.00
2019-01-19T13:09:52.816Z,7.20
2019-01-19T13:12:38.769Z,7.00
2019-01-19T13:15:47.258Z,6.70
2019-01-19T13:18:34.851Z,7.10
2019-01-19T13:21:41.162Z,7.20
2019-01-19T13:25:03.307Z,7.70
2019-01-19T13:28:00.914Z,7.00
2019-01-19T13:31:00.729Z,6.70
2019-01-19T13:33:51.041Z,6.80
2019-01-19T13:36:55.784Z,6.00
2019-01-19T13:40:13.189Z,6.20
2019-01-19T13:43:05.152Z,6.50
2019-01-19T13:46:06.601Z,6.80
2019-01-19T13:49:04.506Z,6.90
2019-01-19T13:51:59.698Z,6.00
2019-01-19T13:54:43.949Z,6.00
2019-01-19T13:57:20.445Z,5.80
2019-01-19T13:59:56.853Z,6.30
2019-01-19T14:03:13.031Z,5.80
2019-01-19T14:06:17.622Z,5.70
2019-01-19T14:09:12.215Z,4.80
2019-01-19T14:12:01.687Z,4.10
2019-01-19T14:15:04.666Z,3.40
2019-01-19T14:17:47.753Z,3.20
2019-01-19T14:21:06.027Z,2.90
2019-01-19T14:24:13.374Z,2.90
2019-01-19T14:27:03.532Z,2.80
2019-01-19T14:29:58.344Z,2.60
2019-01-19T14:32:53.880Z,2.40
2019-01-19T14:36:04.917Z,2.30
2019-01-19T14:39:36.675Z,2.10
2019-01-19T14:42:51.152Z,2.10
2019-01-19T14:46:04.043Z,1.90
2019-01-19T14:49:10.869Z,1.80
2019-01-19T14:52:15.667Z,1.70
2019-01-19T14:54:59.944Z,1.70
2019-01-19T14:57:54.474Z,1.70
2019-01-19T15:01:03.793Z,1.60
2019-01-19T15:04:04.956Z,1.50
2019-01-19T15:07:03.379Z,1.40
2019-01-19T15:10:26.098Z,1.30
2019-01-19T15:13:26.829Z,1.20
2019-01-19T15:16:43.728Z,1.20
2019-01-19T15:19:39.294Z,1.10
2019-01-19T15:23:04.524Z,1.10
2019-01-19T15:26:08.760Z,1.00
2019-01-19T15:29:16.324Z,0.90
2019-01-19T15:31:59.150Z,0.80
2019-01-19T15:35:00.462Z,0.80
2019-01-19T15:38:15.454Z,0.80
2019-01-19T15:41:25.356Z,0.80
2019-01-19T15:44:33.247Z,0.70
2019-01-19T15:47:46.717Z,0.60
2019-01-19T15:50:48.873Z,0.70
2019-01-19T15:53:29.375Z,0.50
2019-01-19T15:56:22.592Z,0.40
2019-01-19T15:59:34.309Z,0.20
2019-01-19T16:02:39.567Z,0.20
2019-01-19T16:05:20.277Z,0.10
2019-01-19T16:08:22.512Z,0.00
2019-01-19T16:11:15.524Z,0.00
2019-01-19T16:14:41.216Z,0.00
2019-01-19T16:18:01.560Z,0.00
2019-01-19T16:20:39.995Z,0.00
2019-01-19T16:23:46.234Z,0.00
2019-01-19T16:27:08.429Z,0.00
2019-01-19T16:29:49.173Z,0.00
2019-01-19T16:32:50.469Z,-0.20
2019-01-19T16:35:55.070Z,-0.30
2019-01-19T16:39:00.435Z,-0.40
2019-01-19T16:41:57.503Z,-0.50
2019-01-19T16:44:56.865Z,-0.50
2019-01-19T16:48:12.587Z,-0.60
2019-01-19T16:51:09.958Z,-0.70
2019-01-19T16:54:17.656Z,-0.60
2019-01-19T16:57:14.503Z,-0.60
2019-01-19T17:00:16.282Z,-0.60
2019-01-19T17:03:29.127Z,-0.70
2019-01-19T17:06:18.707Z,-0.80
2019-01-19T17:09:12.537Z,-0.80
2019-01-19T17:12:12.207Z,-0.80
2019-01-19T17:15:17.655Z,-0.80
2019-01-19T17:18:39.069Z,-0.90
2019-01-19T17:21:38.861Z,-0.90
2019-01-19T17:24:33.068Z,-0.90
2019-01-19T17:27:42.349Z,-1.00
2019-01-19T17:30:28.110Z,-1.10
2019-01-19T17:33:23.300Z,-1.10
2019-01-19T17:36:15.835Z,-1.10
2019-01-19T17:39:47.211Z,-1.10
2019-01-19T17:42:43.375Z,-1.20
2019-01-19T17:45:36.627Z,-1.30
2019-01-19T17:48:24.736Z,-1.40
2019-01-19T17:51:25.594Z,-1.40
2019-01-19T17:55:04.214Z,-1.40
2019-01-19T17:58:12.132Z,-1.40
2019-01-19T18:01:31.364Z,-1.50
2019-01-19T18:04:48.885Z,-1.50
2019-01-19T18:07:28.503Z,-1.60
2019-01-19T18:11:16.166Z,-1.60
2019-01-19T18:14:16.577Z,-1.60
2019-01-19T18:17:29.130Z,-1.60
2019-01-19T18:20:45.022Z,-1.60
2019-01-19T18:23:53.330Z,-1.60
2019-01-19T18:27:21.692Z,-1.60
2019-01-19T18:30:26.641Z,-1.60
2019-01-19T18:33:07.082Z,-1.60
2019-01-19T18:36:00.972Z,-1.70
2019-01-19T18:38:50.333Z,-1.80
2019-01-19T18:41:37.841Z,-1.80
2019-01-19T18:44:14.857Z,-1.80
2019-01-19T18:47:06.810Z,-1.80
2019-01-19T18:50:02.541Z,-1.80
2019-01-19T18:52:58.585Z,-1.80
2019-01-19T18:56:10.679Z,-1.80
2019-01-19T18:58:55.796Z,-1.90
2019-01-19T19:01:54.735Z,-2.00
2019-01-19T19:04:48.887Z,-2.00
2019-01-19T19:07:49.511Z,-1.90
2019-01-19T19:10:47.111Z,-1.80
2019-01-19T19:13:27.734Z,-1.80
2019-01-19T19:16:27.111Z,-1.70
2019-01-19T19:19:36.142Z,-1.90
2019-01-19T19:22:31.178Z,-2.00
2019-01-19T19:25:24.546Z,-2.10
2019-01-19T19:28:37.164Z,-2.20
2019-01-19T19:31:36.014Z,-2.10
2019-01-19T19:34:45.088Z,-2.20
2019-01-19T19:37:38.968Z,-2.30
2019-01-19T19:40:47.913Z,-2.30
2019-01-19T19:43:27.709Z,-2.40
2019-01-19T19:46:16.887Z,-2.40
2019-01-19T19:49:07.421Z,-2.40
2019-01-19T19:52:05.769Z,-2.40
2019-01-19T19:54:35.853Z,-2.40
2019-01-19T19:57:05.592Z,-2.40
2019-01-19T19:59:34.765Z,-2.50
2019-01-19T20:02:04.525Z,-2.60
2019-01-19T20:04:33.795Z,-2.60
2019-01-19T20:07:03.027Z,-2.60
2019-01-19T20:09:32.543Z,-2.70
2019-01-19T20:12:07.128Z,-2.60
2019-01-19T20:14:36.882Z,-2.70
2019-01-19T20:17:06.845Z,-2.70
2019-01-19T20:19:36.253Z,-2.80
2019-01-19T20:22:05.656Z,-2.80
2019-01-19T20:24:34.770Z,-2.80
2019-01-19T20:27:04.970Z,-2.80
2019-01-19T20:29:34.007Z,-2.80
2019-01-19T20:32:02.993Z,-2.80
2019-01-19T20:34:32.171Z,-2.80
2019-01-19T20:37:01.504Z,-2.80
2019-01-19T20:39:30.592Z,-2.90
2019-01-19T20:41:59.520Z,-2.90
2019-01-19T20:44:28.448Z,-2.90
2019-01-19T20:46:57.751Z,-3.00
2019-01-19T20:49:26.761Z,-3.00
2019-01-19T20:51:56.647Z,-3.00
2019-01-19T20:54:26.511Z,-3.00
2019-01-19T20:56:55.447Z,-3.00
2019-01-19T20:59:24.347Z,-2.90
2019-01-19T21:01:53.218Z,-3.00
2019-01-19T21:04:21.950Z,-3.00
2019-01-19T21:06:50.991Z,-3.10
2019-01-19T21:09:19.863Z,-3.00
2019-01-19T21:11:48.794Z,-3.10
2019-01-19T21:14:17.869Z,-3.10
2019-01-19T21:16:46.917Z,-3.10
2019-01-19T21:19:16.279Z,-3.00
2019-01-19T21:21:45.111Z,-3.10
2019-01-19T21:24:14.024Z,-3.10
2019-01-19T21:26:42.844Z,-3.20
2019-01-19T21:29:11.940Z,-3.10
2019-01-19T21:31:40.852Z,-3.20
2019-01-19T21:34:10.109Z,-3.20
2019-01-19T21:36:38.998Z,-3.30
2019-01-19T21:39:08.941Z,-3.20
2019-01-19T21:41:37.963Z,-3.30
2019-01-19T21:44:06.835Z,-3.30
2019-01-19T21:46:35.874Z,-3.30
2019-01-19T21:49:04.928Z,-3.20
2019-01-19T21:51:34.156Z,-3.30
2019-01-19T21:54:03.405Z,-3.30
2019-01-19T21:56:32.276Z,-3.30
2019-01-19T21:59:01.241Z,-3.30
2019-01-19T22:01:30.236Z,-3.30
2019-01-19T22:03:59.259Z,-3.30
2019-01-19T22:06:28.274Z,-3.30
2019-01-19T22:08:57.256Z,-3.30
2019-01-19T22:11:26.060Z,-3.40
2019-01-19T22:13:55.135Z,-3.40
2019-01-19T22:16:23.992Z,-3.40
2019-01-19T22:18:52.861Z,-3.40
2019-01-19T22:21:22.063Z,-3.40
2019-01-19T22:23:51.219Z,-3.50
2019-01-19T22:26:20.719Z,-3.50
2019-01-19T22:28:49.491Z,-3.50
2019-01-19T22:31:18.440Z,-3.50
2019-01-19T22:33:47.355Z,-3.50
2019-01-19T22:36:16.232Z,-3.60
2019-01-19T22:38:45.575Z,-3.60
2019-01-19T22:41:14.600Z,-3.60
2019-01-19T22:43:43.504Z,-3.60
2019-01-19T22:46:12.494Z,-3.60
2019-01-19T22:48:41.412Z,-3.60
2019-01-19T22:51:11.362Z,-3.60
2019-01-19T22:53:40.661Z,-3.60
2019-01-19T22:56:09.448Z,-3.60
2019-01-19T22:58:38.559Z,-3.70
2019-01-19T23:01:49.380Z,-3.60
2019-01-19T23:04:18.252Z,-3.70
2019-01-19T23:06:48.125Z,-3.70
2019-01-19T23:09:17.138Z,-3.70
2019-01-19T23:11:46.516Z,-3.80
2019-01-19T23:14:15.680Z,-3.80
2019-01-19T23:16:44.700Z,-3.80
2019-01-19T23:19:14.286Z,-3.80
2019-01-19T23:21:43.354Z,-3.70
2019-01-19T23:24:12.498Z,-3.80
2019-01-19T23:26:41.652Z,-3.80
2019-01-19T23:29:10.746Z,-3.80
2019-01-19T23:31:39.604Z,-3.80
2019-01-19T23:34:08.451Z,-3.80
2019-01-19T23:36:37.314Z,-3.90
2019-01-19T23:39:09.436Z,-3.80
2019-01-19T23:41:38.680Z,-3.80
2019-01-19T23:44:07.859Z,-3.80
2019-01-19T23:46:36.797Z,-3.80
2019-01-19T23:49:05.751Z,-3.90
2019-01-19T23:51:34.628Z,-3.90
2019-01-19T23:54:03.665Z,-3.90
2019-01-19T23:56:32.860Z,-3.90
2019-01-19T23:59:02.064Z,-3.90
